sensor_id;sensor_type;location;lat;lon;timestamp;pressure;altitude;pressure_sealevel;temperature;humidity
69306;BME280;56427;51.580;4.656;2023-05-03T00:01:07;102894.34;;;5.89;100.00
69306;BME280;56427;51.580;4.656;2023-05-03T00:03:32;102876.56;;;5.80;100.00
69306;BME280;56427;51.580;4.656;2023-05-03T00:06:11;102903.66;;;5.93;100.00
69306;BME280;56427;51.580;4.656;2023-05-03T00:08:37;102894.28;;;5.61;100.00
69306;BME280;56427;51.580;4.656;2023-05-03T00:11:08;102906.25;;;5.63;100.00
69306;BME280;56427;51.580;4.656;2023-05-03T00:13:34;102884.44;;;5.45;100.00
69306;BME280;56427;51.580;4.656;2023-05-03T00:16:00;102871.03;;;5.34;100.00
69306;BME280;56427;51.580;4.656;2023-05-03T00:18:26;102891.78;;;5.59;100.00
69306;BME280;56427;51.580;4.656;2023-05-03T00:20:52;102883.78;;;5.68;100.00
69306;BME280;56427;51.580;4.656;2023-05-03T00:23:18;102884.53;;;5.42;100.00
69306;BME280;56427;51.580;4.656;2023-05-03T00:25:44;102876.69;;;5.47;100.00
69306;BME280;56427;51.580;4.656;2023-05-03T00:28:09;102875.63;;;5.52;100.00
69306;BME280;56427;51.580;4.656;2023-05-03T00:30:35;102880.13;;;5.46;100.00
69306;BME280;56427;51.580;4.656;2023-05-03T00:33:00;102887.38;;;5.33;100.00
69306;BME280;56427;51.580;4.656;2023-05-03T00:35:26;102880.31;;;5.40;100.00
69306;BME280;56427;51.580;4.656;2023-05-03T00:37:51;102873.59;;;5.34;100.00
69306;BME280;56427;51.580;4.656;2023-05-03T00:40:17;102881.25;;;5.37;100.00
69306;BME280;56427;51.580;4.656;2023-05-03T00:42:43;102873.06;;;5.23;100.00
69306;BME280;56427;51.580;4.656;2023-05-03T00:45:11;102858.50;;;5.22;100.00
69306;BME280;56427;51.580;4.656;2023-05-03T00:47:37;102858.84;;;5.39;100.00
69306;BME280;56427;51.580;4.656;2023-05-03T00:50:03;102889.59;;;5.45;100.00
69306;BME280;56427;51.580;4.656;2023-05-03T00:52:29;102867.25;;;5.46;100.00
69306;BME280;56427;51.580;4.656;2023-05-03T00:54:58;102870.41;;;5.26;100.00
69306;BME280;56427;51.580;4.656;2023-05-03T00:57:25;102862.72;;;5.24;100.00
69306;BME280;56427;51.580;4.656;2023-05-03T00:59:52;102886.50;;;5.32;100.00
69306;BME280;56427;51.580;4.656;2023-05-03T01:02:26;102888.06;;;5.40;100.00
69306;BME280;56427;51.580;4.656;2023-05-03T01:04:55;102867.22;;;5.16;100.00
69306;BME280;56427;51.580;4.656;2023-05-03T01:07:22;102880.09;;;5.16;100.00
69306;BME280;56427;51.580;4.656;2023-05-03T01:12:52;102884.19;;;5.25;100.00
69306;BME280;56427;51.580;4.656;2023-05-03T01:15:48;102886.72;;;5.26;100.00
69306;BME280;56427;51.580;4.656;2023-05-03T01:18:14;102873.34;;;5.13;100.00
69306;BME280;56427;51.580;4.656;2023-05-03T01:20:43;102879.47;;;5.08;100.00
69306;BME280;56427;51.580;4.656;2023-05-03T01:23:16;102871.56;;;5.15;100.00
69306;BME280;56427;51.580;4.656;2023-05-03T01:25:43;102878.91;;;4.96;100.00
69306;BME280;56427;51.580;4.656;2023-05-03T01:28:08;102860.28;;;4.87;100.00
69306;BME280;56427;51.580;4.656;2023-05-03T01:30:35;102881.53;;;4.95;100.00
69306;BME280;56427;51.580;4.656;2023-05-03T01:33:24;102898.09;;;4.85;100.00
69306;BME280;56427;51.580;4.656;2023-05-03T01:38:36;102874.38;;;4.73;100.00
69306;BME280;56427;51.580;4.656;2023-05-03T01:41:05;102869.75;;;4.86;100.00
69306;BME280;56427;51.580;4.656;2023-05-03T01:43:33;102877.59;;;4.82;100.00
69306;BME280;56427;51.580;4.656;2023-05-03T01:46:00;102882.78;;;4.80;100.00
69306;BME280;56427;51.580;4.656;2023-05-03T01:48:26;102877.16;;;4.66;100.00
69306;BME280;56427;51.580;4.656;2023-05-03T01:50:51;102882.88;;;4.77;100.00
69306;BME280;56427;51.580;4.656;2023-05-03T01:53:17;102868.88;;;4.87;100.00
69306;BME280;56427;51.580;4.656;2023-05-03T01:55:42;102859.41;;;4.55;100.00
69306;BME280;56427;51.580;4.656;2023-05-03T01:58:07;102868.47;;;4.70;100.00
69306;BME280;56427;51.580;4.656;2023-05-03T02:00:33;102862.63;;;4.63;100.00
69306;BME280;56427;51.580;4.656;2023-05-03T02:03:00;102840.72;;;4.48;100.00
69306;BME280;56427;51.580;4.656;2023-05-03T02:05:26;102851.75;;;4.53;100.00
69306;BME280;56427;51.580;4.656;2023-05-03T02:07:51;102835.41;;;4.56;100.00
69306;BME280;56427;51.580;4.656;2023-05-03T02:10:17;102835.94;;;4.34;100.00
69306;BME280;56427;51.580;4.656;2023-05-03T02:12:43;102828.31;;;4.31;100.00
69306;BME280;56427;51.580;4.656;2023-05-03T02:15:09;102831.72;;;4.32;100.00
69306;BME280;56427;51.580;4.656;2023-05-03T02:17:36;102831.84;;;4.26;100.00
69306;BME280;56427;51.580;4.656;2023-05-03T02:20:02;102811.50;;;4.18;100.00
69306;BME280;56427;51.580;4.656;2023-05-03T02:22:30;102814.19;;;4.13;100.00
69306;BME280;56427;51.580;4.656;2023-05-03T02:24:56;102820.28;;;4.08;100.00
69306;BME280;56427;51.580;4.656;2023-05-03T02:27:22;102803.25;;;4.05;100.00
69306;BME280;56427;51.580;4.656;2023-05-03T02:29:47;102825.63;;;4.00;100.00
69306;BME280;56427;51.580;4.656;2023-05-03T02:32:13;102828.91;;;4.07;100.00
69306;BME280;56427;51.580;4.656;2023-05-03T02:34:38;102844.63;;;4.29;100.00
69306;BME280;56427;51.580;4.656;2023-05-03T02:37:04;102832.06;;;4.18;100.00
69306;BME280;56427;51.580;4.656;2023-05-03T02:39:29;102841.44;;;4.53;100.00
69306;BME280;56427;51.580;4.656;2023-05-03T02:41:57;102845.91;;;4.47;100.00
69306;BME280;56427;51.580;4.656;2023-05-03T02:44:22;102833.63;;;4.23;100.00
69306;BME280;56427;51.580;4.656;2023-05-03T02:46:48;102829.53;;;4.51;100.00
69306;BME280;56427;51.580;4.656;2023-05-03T02:49:13;102843.72;;;4.31;100.00
69306;BME280;56427;51.580;4.656;2023-05-03T02:51:39;102865.97;;;4.32;100.00
69306;BME280;56427;51.580;4.656;2023-05-03T02:54:04;102858.53;;;4.21;100.00
69306;BME280;56427;51.580;4.656;2023-05-03T02:56:30;102843.72;;;4.31;100.00
69306;BME280;56427;51.580;4.656;2023-05-03T02:58:55;102857.13;;;4.44;100.00
69306;BME280;56427;51.580;4.656;2023-05-03T03:01:21;102840.84;;;4.43;100.00
69306;BME280;56427;51.580;4.656;2023-05-03T03:03:46;102837.81;;;4.28;100.00
69306;BME280;56427;51.580;4.656;2023-05-03T03:06:12;102847.91;;;4.35;100.00
69306;BME280;56427;51.580;4.656;2023-05-03T03:08:37;102845.44;;;4.31;100.00
69306;BME280;56427;51.580;4.656;2023-05-03T03:11:04;102853.06;;;4.34;100.00
69306;BME280;56427;51.580;4.656;2023-05-03T03:13:29;102841.06;;;4.36;100.00
69306;BME280;56427;51.580;4.656;2023-05-03T03:15:55;102850.19;;;4.48;100.00
69306;BME280;56427;51.580;4.656;2023-05-03T03:18:21;102842.06;;;4.29;100.00
69306;BME280;56427;51.580;4.656;2023-05-03T03:20:46;102859.09;;;4.69;100.00
69306;BME280;56427;51.580;4.656;2023-05-03T03:23:11;102864.00;;;4.42;100.00
69306;BME280;56427;51.580;4.656;2023-05-03T03:25:37;102860.19;;;4.58;100.00
69306;BME280;56427;51.580;4.656;2023-05-03T03:28:02;102864.63;;;4.52;100.00
69306;BME280;56427;51.580;4.656;2023-05-03T03:30:31;102875.50;;;4.63;100.00
69306;BME280;56427;51.580;4.656;2023-05-03T03:32:57;102875.78;;;4.52;100.00
69306;BME280;56427;51.580;4.656;2023-05-03T03:35:22;102867.97;;;4.55;100.00
69306;BME280;56427;51.580;4.656;2023-05-03T03:37:47;102887.22;;;4.39;100.00
69306;BME280;56427;51.580;4.656;2023-05-03T03:40:13;102885.94;;;4.57;100.00
69306;BME280;56427;51.580;4.656;2023-05-03T03:42:38;102880.63;;;4.29;100.00
69306;BME280;56427;51.580;4.656;2023-05-03T03:45:04;102859.13;;;4.33;100.00
69306;BME280;56427;51.580;4.656;2023-05-03T03:47:30;102851.44;;;4.31;100.00
69306;BME280;56427;51.580;4.656;2023-05-03T03:49:57;102861.00;;;4.26;100.00
69306;BME280;56427;51.580;4.656;2023-05-03T03:52:23;102868.22;;;4.46;100.00
69306;BME280;56427;51.580;4.656;2023-05-03T03:54:48;102875.38;;;4.33;100.00
69306;BME280;56427;51.580;4.656;2023-05-03T03:57:14;102872.03;;;4.30;100.00
69306;BME280;56427;51.580;4.656;2023-05-03T03:59:39;102858.59;;;4.18;100.00
69306;BME280;56427;51.580;4.656;2023-05-03T04:02:05;102888.63;;;4.16;100.00
69306;BME280;56427;51.580;4.656;2023-05-03T04:04:30;102877.72;;;4.07;100.00
69306;BME280;56427;51.580;4.656;2023-05-03T04:06:59;102882.44;;;4.25;100.00
69306;BME280;56427;51.580;4.656;2023-05-03T04:09:24;102874.75;;;4.23;100.00
69306;BME280;56427;51.580;4.656;2023-05-03T04:11:52;102897.81;;;4.27;100.00
69306;BME280;56427;51.580;4.656;2023-05-03T04:14:18;102888.78;;;4.46;100.00
69306;BME280;56427;51.580;4.656;2023-05-03T04:16:43;102905.69;;;4.19;100.00
69306;BME280;56427;51.580;4.656;2023-05-03T04:19:09;102883.41;;;3.82;100.00
69306;BME280;56427;51.580;4.656;2023-05-03T04:21:34;102902.88;;;3.92;100.00
69306;BME280;56427;51.580;4.656;2023-05-03T04:24:13;102887.56;;;3.87;100.00
69306;BME280;56427;51.580;4.656;2023-05-03T04:26:45;102905.69;;;3.80;100.00
69306;BME280;56427;51.580;4.656;2023-05-03T04:29:15;102893.09;;;3.69;100.00
69306;BME280;56427;51.580;4.656;2023-05-03T04:31:41;102899.00;;;3.73;100.00
69306;BME280;56427;51.580;4.656;2023-05-03T04:34:06;102901.69;;;4.45;100.00
69306;BME280;56427;51.580;4.656;2023-05-03T04:36:32;102894.78;;;5.12;100.00
69306;BME280;56427;51.580;4.656;2023-05-03T04:38:58;102887.66;;;5.82;100.00
69306;BME280;56427;51.580;4.656;2023-05-03T04:41:24;102886.75;;;6.13;100.00
69306;BME280;56427;51.580;4.656;2023-05-03T04:43:49;102871.94;;;6.19;100.00
69306;BME280;56427;51.580;4.656;2023-05-03T04:46:16;102878.38;;;6.33;100.00
69306;BME280;56427;51.580;4.656;2023-05-03T04:48:43;102896.38;;;6.61;100.00
69306;BME280;56427;51.580;4.656;2023-05-03T04:51:09;102877.94;;;6.97;100.00
69306;BME280;56427;51.580;4.656;2023-05-03T04:53:34;102879.13;;;7.12;100.00
69306;BME280;56427;51.580;4.656;2023-05-03T04:55:59;102864.31;;;7.17;100.00
69306;BME280;56427;51.580;4.656;2023-05-03T04:58:25;102885.44;;;7.28;100.00
69306;BME280;56427;51.580;4.656;2023-05-03T05:00:50;102888.88;;;7.74;100.00
69306;BME280;56427;51.580;4.656;2023-05-03T05:03:16;102883.38;;;8.06;100.00
69306;BME280;56427;51.580;4.656;2023-05-03T05:05:41;102877.41;;;8.26;100.00
69306;BME280;56427;51.580;4.656;2023-05-03T05:08:07;102881.19;;;8.60;100.00
69306;BME280;56427;51.580;4.656;2023-05-03T05:10:36;102879.66;;;8.56;100.00
69306;BME280;56427;51.580;4.656;2023-05-03T05:13:05;102896.72;;;9.01;100.00
69306;BME280;56427;51.580;4.656;2023-05-03T05:15:30;102892.16;;;8.87;100.00
69306;BME280;56427;51.580;4.656;2023-05-03T05:17:56;102891.94;;;8.71;100.00
69306;BME280;56427;51.580;4.656;2023-05-03T05:20:21;102890.94;;;8.75;100.00
69306;BME280;56427;51.580;4.656;2023-05-03T05:22:47;102895.75;;;9.03;100.00
69306;BME280;56427;51.580;4.656;2023-05-03T05:25:12;102891.53;;;9.01;100.00
69306;BME280;56427;51.580;4.656;2023-05-03T05:27:38;102915.00;;;8.77;100.00
69306;BME280;56427;51.580;4.656;2023-05-03T05:30:04;102898.13;;;8.69;100.00
69306;BME280;56427;51.580;4.656;2023-05-03T05:32:30;102917.31;;;9.04;100.00
69306;BME280;56427;51.580;4.656;2023-05-03T05:34:56;102901.66;;;8.45;100.00
69306;BME280;56427;51.580;4.656;2023-05-03T05:37:22;102899.44;;;8.98;100.00
69306;BME280;56427;51.580;4.656;2023-05-03T05:39:47;102897.16;;;9.11;100.00
69306;BME280;56427;51.580;4.656;2023-05-03T05:42:13;102898.72;;;9.34;100.00
69306;BME280;56427;51.580;4.656;2023-05-03T05:44:41;102896.56;;;9.63;100.00
69306;BME280;56427;51.580;4.656;2023-05-03T05:47:07;102901.94;;;9.39;100.00
69306;BME280;56427;51.580;4.656;2023-05-03T05:49:33;102902.38;;;9.30;100.00
69306;BME280;56427;51.580;4.656;2023-05-03T05:51:58;102899.53;;;8.96;100.00
69306;BME280;56427;51.580;4.656;2023-05-03T05:54:24;102907.06;;;9.21;100.00
69306;BME280;56427;51.580;4.656;2023-05-03T05:56:49;102893.91;;;9.64;100.00
69306;BME280;56427;51.580;4.656;2023-05-03T05:59:15;102906.28;;;9.38;100.00
69306;BME280;56427;51.580;4.656;2023-05-03T06:01:41;102898.97;;;9.67;100.00
69306;BME280;56427;51.580;4.656;2023-05-03T06:04:13;102914.00;;;10.14;100.00
69306;BME280;56427;51.580;4.656;2023-05-03T06:06:41;102886.13;;;9.45;100.00
69306;BME280;56427;51.580;4.656;2023-05-03T06:09:09;102903.06;;;9.71;100.00
69306;BME280;56427;51.580;4.656;2023-05-03T06:11:35;102891.41;;;9.99;100.00
69306;BME280;56427;51.580;4.656;2023-05-03T06:14:02;102906.22;;;10.51;100.00
69306;BME280;56427;51.580;4.656;2023-05-03T06:16:28;102875.97;;;9.79;98.49
69306;BME280;56427;51.580;4.656;2023-05-03T06:18:54;102874.66;;;10.24;98.31
69306;BME280;56427;51.580;4.656;2023-05-03T06:21:20;102905.53;;;9.74;100.00
69306;BME280;56427;51.580;4.656;2023-05-03T06:23:46;102901.00;;;10.86;97.59
69306;BME280;56427;51.580;4.656;2023-05-03T06:26:11;102903.97;;;9.89;98.18
69306;BME280;56427;51.580;4.656;2023-05-03T06:28:40;102894.75;;;10.38;99.27
69306;BME280;56427;51.580;4.656;2023-05-03T06:31:05;102888.16;;;10.30;96.02
69306;BME280;56427;51.580;4.656;2023-05-03T06:33:37;102883.53;;;10.55;96.09
69306;BME280;56427;51.580;4.656;2023-05-03T06:36:08;102896.16;;;10.45;96.01
69306;BME280;56427;51.580;4.656;2023-05-03T06:38:39;102870.25;;;10.43;97.23
69306;BME280;56427;51.580;4.656;2023-05-03T06:41:07;102875.75;;;11.05;94.14
69306;BME280;56427;51.580;4.656;2023-05-03T06:43:35;102890.13;;;12.08;88.86
69306;BME280;56427;51.580;4.656;2023-05-03T06:46:03;102878.44;;;11.04;89.53
69306;BME280;56427;51.580;4.656;2023-05-03T06:48:29;102883.06;;;10.64;92.18
69306;BME280;56427;51.580;4.656;2023-05-03T06:50:56;102897.72;;;10.82;93.74
69306;BME280;56427;51.580;4.656;2023-05-03T06:53:22;102888.31;;;10.80;92.39
69306;BME280;56427;51.580;4.656;2023-05-03T06:55:47;102885.50;;;10.67;93.23
69306;BME280;56427;51.580;4.656;2023-05-03T06:58:13;102876.03;;;11.33;93.78
69306;BME280;56427;51.580;4.656;2023-05-03T07:00:38;102863.44;;;11.41;89.63
69306;BME280;56427;51.580;4.656;2023-05-03T07:03:05;102860.22;;;12.15;89.90
69306;BME280;56427;51.580;4.656;2023-05-03T07:05:30;102878.78;;;12.40;87.18
69306;BME280;56427;51.580;4.656;2023-05-03T07:07:59;102882.69;;;11.05;91.39
69306;BME280;56427;51.580;4.656;2023-05-03T07:10:27;102862.53;;;11.10;94.24
69306;BME280;56427;51.580;4.656;2023-05-03T07:12:55;102861.84;;;10.56;95.25
69306;BME280;56427;51.580;4.656;2023-05-03T07:15:20;102858.16;;;11.11;95.88
69306;BME280;56427;51.580;4.656;2023-05-03T07:17:46;102864.56;;;11.03;91.64
69306;BME280;56427;51.580;4.656;2023-05-03T07:20:11;102861.31;;;10.66;96.60
69306;BME280;56427;51.580;4.656;2023-05-03T07:22:37;102885.34;;;11.37;93.21
69306;BME280;56427;51.580;4.656;2023-05-03T07:25:03;102856.81;;;11.83;90.19
69306;BME280;56427;51.580;4.656;2023-05-03T07:27:29;102854.06;;;12.17;89.88
69306;BME280;56427;51.580;4.656;2023-05-03T07:29:54;102875.75;;;12.62;85.34
69306;BME280;56427;51.580;4.656;2023-05-03T07:32:20;102869.78;;;12.15;86.75
69306;BME280;56427;51.580;4.656;2023-05-03T07:34:46;102856.84;;;12.13;84.80
69306;BME280;56427;51.580;4.656;2023-05-03T07:37:12;102867.56;;;11.93;89.71
69306;BME280;56427;51.580;4.656;2023-05-03T07:39:38;102843.22;;;12.24;85.33
69306;BME280;56427;51.580;4.656;2023-05-03T07:42:03;102826.72;;;11.47;89.20
69306;BME280;56427;51.580;4.656;2023-05-03T07:44:29;102833.84;;;12.36;87.57
69306;BME280;56427;51.580;4.656;2023-05-03T07:46:56;102843.66;;;12.17;86.33
69306;BME280;56427;51.580;4.656;2023-05-03T07:49:21;102833.03;;;12.36;87.72
69306;BME280;56427;51.580;4.656;2023-05-03T07:51:49;102827.53;;;12.26;89.15
69306;BME280;56427;51.580;4.656;2023-05-03T07:54:15;102828.47;;;12.68;86.27
69306;BME280;56427;51.580;4.656;2023-05-03T07:56:44;102824.41;;;13.76;80.71
69306;BME280;56427;51.580;4.656;2023-05-03T07:59:15;102802.50;;;13.78;78.59
69306;BME280;56427;51.580;4.656;2023-05-03T08:01:41;102808.81;;;14.02;75.75
69306;BME280;56427;51.580;4.656;2023-05-03T08:04:07;102805.72;;;13.28;71.62
69306;BME280;56427;51.580;4.656;2023-05-03T08:06:43;102798.72;;;12.58;73.72
69306;BME280;56427;51.580;4.656;2023-05-03T08:09:18;102807.91;;;13.06;76.12
69306;BME280;56427;51.580;4.656;2023-05-03T08:11:44;102825.44;;;13.32;74.61
69306;BME280;56427;51.580;4.656;2023-05-03T08:14:10;102827.63;;;13.11;72.57
69306;BME280;56427;51.580;4.656;2023-05-03T08:16:36;102832.97;;;14.57;70.38
69306;BME280;56427;51.580;4.656;2023-05-03T08:19:02;102837.88;;;14.35;68.75
69306;BME280;56427;51.580;4.656;2023-05-03T08:21:29;102844.06;;;14.99;72.14
69306;BME280;56427;51.580;4.656;2023-05-03T08:23:54;102837.88;;;14.35;67.68
69306;BME280;56427;51.580;4.656;2023-05-03T08:26:20;102839.53;;;14.24;68.21
69306;BME280;56427;51.580;4.656;2023-05-03T08:28:46;102839.19;;;13.90;71.49
69306;BME280;56427;51.580;4.656;2023-05-03T08:31:11;102847.00;;;15.31;67.83
69306;BME280;56427;51.580;4.656;2023-05-03T08:33:37;102843.09;;;14.35;63.66
69306;BME280;56427;51.580;4.656;2023-05-03T08:36:02;102841.53;;;14.20;66.01
69306;BME280;56427;51.580;4.656;2023-05-03T08:38:27;102839.53;;;14.11;64.87
69306;BME280;56427;51.580;4.656;2023-05-03T08:40:54;102841.09;;;13.32;67.75
69306;BME280;56427;51.580;4.656;2023-05-03T08:43:23;102834.50;;;13.95;65.76
69306;BME280;56427;51.580;4.656;2023-05-03T08:45:51;102829.88;;;13.86;64.66
69306;BME280;56427;51.580;4.656;2023-05-03T08:48:17;102842.06;;;14.89;64.05
69306;BME280;56427;51.580;4.656;2023-05-03T08:50:43;102829.00;;;14.89;62.71
69306;BME280;56427;51.580;4.656;2023-05-03T08:53:09;102837.88;;;14.23;61.21
69306;BME280;56427;51.580;4.656;2023-05-03T08:55:36;102831.31;;;14.56;61.67
69306;BME280;56427;51.580;4.656;2023-05-03T08:58:05;102819.88;;;14.05;63.34
69306;BME280;56427;51.580;4.656;2023-05-03T09:00:34;102823.06;;;14.62;63.48
69306;BME280;56427;51.580;4.656;2023-05-03T09:03:00;102831.44;;;14.80;61.53
69306;BME280;56427;51.580;4.656;2023-05-03T09:05:33;102825.06;;;13.92;64.38
69306;BME280;56427;51.580;4.656;2023-05-03T09:08:09;102827.66;;;13.79;66.21
69306;BME280;56427;51.580;4.656;2023-05-03T09:10:39;102822.16;;;13.97;67.81
69306;BME280;56427;51.580;4.656;2023-05-03T09:13:05;102819.72;;;14.72;61.17
69306;BME280;56427;51.580;4.656;2023-05-03T09:15:32;102821.81;;;14.54;64.99
69306;BME280;56427;51.580;4.656;2023-05-03T09:18:17;102818.47;;;14.65;62.05
69306;BME280;56427;51.580;4.656;2023-05-03T09:20:44;102815.66;;;13.50;65.56
69306;BME280;56427;51.580;4.656;2023-05-03T09:23:37;102818.38;;;14.41;66.37
69306;BME280;56427;51.580;4.656;2023-05-03T09:26:01;102822.75;;;14.92;64.92
69306;BME280;56427;51.580;4.656;2023-05-03T09:28:27;102829.47;;;14.70;63.79
69306;BME280;56427;51.580;4.656;2023-05-03T09:31:05;102822.66;;;14.29;63.91
69306;BME280;56427;51.580;4.656;2023-05-03T09:33:32;102830.59;;;14.79;63.22
69306;BME280;56427;51.580;4.656;2023-05-03T09:35:59;102827.72;;;14.05;63.83
69306;BME280;56427;51.580;4.656;2023-05-03T09:38:29;102834.69;;;15.81;62.65
69306;BME280;56427;51.580;4.656;2023-05-03T09:40:56;102828.69;;;15.31;60.27
69306;BME280;56427;51.580;4.656;2023-05-03T09:43:22;102836.13;;;15.86;57.47
69306;BME280;56427;51.580;4.656;2023-05-03T09:45:47;102826.47;;;17.12;57.97
69306;BME280;56427;51.580;4.656;2023-05-03T09:48:13;102826.75;;;16.64;58.65
69306;BME280;56427;51.580;4.656;2023-05-03T09:50:39;102842.47;;;16.75;57.94
69306;BME280;56427;51.580;4.656;2023-05-03T09:53:05;102838.84;;;16.19;55.64
69306;BME280;56427;51.580;4.656;2023-05-03T09:55:36;102822.78;;;15.40;57.97
69306;BME280;56427;51.580;4.656;2023-05-03T09:58:02;102828.38;;;15.84;57.83
69306;BME280;56427;51.580;4.656;2023-05-03T10:00:40;102829.63;;;14.29;57.46
69306;BME280;56427;51.580;4.656;2023-05-03T10:03:13;102827.53;;;14.08;62.71
69306;BME280;56427;51.580;4.656;2023-05-03T10:05:46;102804.34;;;14.42;61.75
69306;BME280;56427;51.580;4.656;2023-05-03T10:08:18;102818.56;;;14.25;61.10
69306;BME280;56427;51.580;4.656;2023-05-03T10:10:48;102813.19;;;14.01;62.51
69306;BME280;56427;51.580;4.656;2023-05-03T10:13:20;102813.59;;;14.61;63.36
69306;BME280;56427;51.580;4.656;2023-05-03T10:15:48;102822.22;;;15.24;64.65
69306;BME280;56427;51.580;4.656;2023-05-03T10:18:17;102816.28;;;15.22;57.97
69306;BME280;56427;51.580;4.656;2023-05-03T10:20:49;102812.97;;;15.07;58.41
69306;BME280;56427;51.580;4.656;2023-05-03T10:23:18;102818.41;;;15.04;59.77
69306;BME280;56427;51.580;4.656;2023-05-03T10:28:37;102817.97;;;13.94;60.04
69306;BME280;56427;51.580;4.656;2023-05-03T10:31:03;102811.06;;;15.22;60.82
69306;BME280;56427;51.580;4.656;2023-05-03T10:33:33;102805.59;;;14.88;59.96
69306;BME280;56427;51.580;4.656;2023-05-03T10:36:05;102807.41;;;14.36;59.90
69306;BME280;56427;51.580;4.656;2023-05-03T10:38:31;102789.88;;;15.01;60.00
69306;BME280;56427;51.580;4.656;2023-05-03T10:40:58;102798.09;;;14.58;61.35
69306;BME280;56427;51.580;4.656;2023-05-03T10:46:01;102803.41;;;14.43;61.00
69306;BME280;56427;51.580;4.656;2023-05-03T10:48:28;102794.38;;;13.96;59.94
69306;BME280;56427;51.580;4.656;2023-05-03T10:50:55;102795.69;;;14.54;59.94
69306;BME280;56427;51.580;4.656;2023-05-03T10:56:03;102790.38;;;14.69;60.44
69306;BME280;56427;51.580;4.656;2023-05-03T10:58:37;102788.06;;;14.77;60.39
69306;BME280;56427;51.580;4.656;2023-05-03T11:01:08;102789.94;;;14.24;59.02
69306;BME280;56427;51.580;4.656;2023-05-03T11:08:56;102779.06;;;14.43;61.13
69306;BME280;56427;51.580;4.656;2023-05-03T11:11:22;102774.88;;;14.40;60.33
69306;BME280;56427;51.580;4.656;2023-05-03T11:13:49;102767.66;;;14.82;58.90
69306;BME280;56427;51.580;4.656;2023-05-03T11:16:15;102769.44;;;15.43;59.22
69306;BME280;56427;51.580;4.656;2023-05-03T11:18:40;102752.13;;;15.05;57.88
69306;BME280;56427;51.580;4.656;2023-05-03T11:21:06;102759.22;;;15.51;60.26
69306;BME280;56427;51.580;4.656;2023-05-03T11:23:31;102754.75;;;15.16;58.76
69306;BME280;56427;51.580;4.656;2023-05-03T11:25:56;102758.09;;;16.13;58.84
69306;BME280;56427;51.580;4.656;2023-05-03T11:28:23;102757.28;;;16.24;58.00
69306;BME280;56427;51.580;4.656;2023-05-03T11:30:48;102760.06;;;15.76;55.72
69306;BME280;56427;51.580;4.656;2023-05-03T11:33:15;102744.69;;;15.47;57.39
69306;BME280;56427;51.580;4.656;2023-05-03T11:35:41;102743.53;;;14.40;57.42
69306;BME280;56427;51.580;4.656;2023-05-03T11:38:07;102736.75;;;15.00;60.38
69306;BME280;56427;51.580;4.656;2023-05-03T11:40:33;102731.53;;;15.00;58.67
69306;BME280;56427;51.580;4.656;2023-05-03T11:43:00;102732.38;;;15.60;59.47
69306;BME280;56427;51.580;4.656;2023-05-03T11:45:31;102739.03;;;15.29;56.84
69306;BME280;56427;51.580;4.656;2023-05-03T11:47:57;102732.59;;;15.93;53.31
69306;BME280;56427;51.580;4.656;2023-05-03T11:50:43;102727.03;;;16.31;53.30
69306;BME280;56427;51.580;4.656;2023-05-03T11:53:11;102706.31;;;16.28;53.69
69306;BME280;56427;51.580;4.656;2023-05-03T11:55:47;102711.75;;;15.56;54.80
69306;BME280;56427;51.580;4.656;2023-05-03T11:58:14;102714.44;;;15.07;57.42
69306;BME280;56427;51.580;4.656;2023-05-03T12:00:44;102706.75;;;14.93;61.40
69306;BME280;56427;51.580;4.656;2023-05-03T12:03:18;102711.28;;;14.78;61.41
69306;BME280;56427;51.580;4.656;2023-05-03T12:05:44;102689.28;;;14.57;60.92
69306;BME280;56427;51.580;4.656;2023-05-03T12:08:10;102680.94;;;15.13;61.88
69306;BME280;56427;51.580;4.656;2023-05-03T12:10:36;102673.47;;;15.19;60.31
69306;BME280;56427;51.580;4.656;2023-05-03T12:13:02;102688.66;;;15.38;60.58
69306;BME280;56427;51.580;4.656;2023-05-03T12:15:34;102687.41;;;14.96;58.36
69306;BME280;56427;51.580;4.656;2023-05-03T12:18:05;102694.50;;;15.42;60.43
69306;BME280;56427;51.580;4.656;2023-05-03T12:20:31;102682.19;;;14.96;60.30
69306;BME280;56427;51.580;4.656;2023-05-03T12:23:02;102653.94;;;15.36;62.90
69306;BME280;56427;51.580;4.656;2023-05-03T12:25:28;102669.03;;;15.44;60.77
69306;BME280;56427;51.580;4.656;2023-05-03T12:27:57;102670.59;;;15.46;60.19
69306;BME280;56427;51.580;4.656;2023-05-03T12:30:23;102656.25;;;15.63;63.16
69306;BME280;56427;51.580;4.656;2023-05-03T12:32:48;102659.28;;;16.04;60.01
69306;BME280;56427;51.580;4.656;2023-05-03T12:35:14;102657.47;;;16.50;62.35
69306;BME280;56427;51.580;4.656;2023-05-03T12:37:40;102652.28;;;17.15;56.16
69306;BME280;56427;51.580;4.656;2023-05-03T12:40:06;102656.56;;;17.16;54.00
69306;BME280;56427;51.580;4.656;2023-05-03T12:42:32;102656.31;;;15.97;55.32
69306;BME280;56427;51.580;4.656;2023-05-03T12:44:58;102656.06;;;16.23;61.34
69306;BME280;56427;51.580;4.656;2023-05-03T12:47:24;102649.59;;;15.71;61.37
69306;BME280;56427;51.580;4.656;2023-05-03T12:49:51;102639.38;;;16.24;60.57
69306;BME280;56427;51.580;4.656;2023-05-03T12:52:16;102642.59;;;16.16;59.26
69306;BME280;56427;51.580;4.656;2023-05-03T12:54:42;102637.34;;;16.39;57.76
69306;BME280;56427;51.580;4.656;2023-05-03T12:57:08;102640.47;;;15.88;58.42
69306;BME280;56427;51.580;4.656;2023-05-03T12:59:35;102635.47;;;15.96;61.02
69306;BME280;56427;51.580;4.656;2023-05-03T13:02:01;102624.16;;;16.18;60.35
69306;BME280;56427;51.580;4.656;2023-05-03T13:04:27;102617.31;;;16.93;64.35
69306;BME280;56427;51.580;4.656;2023-05-03T13:06:53;102620.94;;;16.26;58.07
69306;BME280;56427;51.580;4.656;2023-05-03T13:09:19;102615.94;;;16.23;60.11